Time;durP1;ratioP1;P1;durP2;ratioP2;P2;SDS_P1;SDS_P2;PMS_P1;PMS_P2;Temp;Humidity;BMP_temperature;BMP_pressure;BME280_temperature;BME280_humidity;BME280_pressure;Samples;Min_cycle;Max_cycle;Signal;HPM_P1;HPM_P2
2022/12/05 00:01:27;;;;;;;;;54.50;43.50;;;;;-149.00;100.00;66333.84;4963157;28;45312;-76
2022/12/05 00:03:55;;;;;;;;;65.50;52.00;;;;;-149.00;100.00;66333.84;4959895;28;45358;-76
2022/12/05 00:06:24;;;;;;;;;55.75;46.00;;;;;-149.00;100.00;66333.84;4960061;28;47617;-75
2022/12/05 00:08:50;;;;;;;;;52.50;42.75;;;;;-149.00;100.00;66333.84;4960757;28;47533;-75
2022/12/05 00:11:22;;;;;;;;;48.75;37.50;;;;;-149.00;100.00;66333.84;4960952;28;45264;-75
2022/12/05 00:13:48;;;;;;;;;54.75;43.00;;;;;-149.00;100.00;66333.84;4960974;28;45423;-76
2022/12/05 00:16:17;;;;;;;;;46.00;40.50;;;;;-149.00;100.00;66333.84;4960746;28;45440;-77
2022/12/05 00:18:42;;;;;;;;;55.75;44.00;;;;;-149.00;100.00;66333.84;4973159;28;45732;-76
2022/12/05 00:21:13;;;;;;;;;63.50;49.25;;;;;-149.00;100.00;66333.84;4956065;28;45327;-76
2022/12/05 00:23:40;;;;;;;;;43.00;39.50;;;;;-149.00;100.00;66333.84;4962959;28;45392;-75
2022/12/05 00:26:05;;;;;;;;;42.50;35.50;;;;;-149.00;100.00;66333.84;4965292;28;45821;-75
2022/12/05 00:28:32;;;;;;;;;35.50;32.75;;;;;-149.00;100.00;66333.84;4963673;28;47184;-76
2022/12/05 00:31:10;;;;;;;;;40.75;33.00;;;;;-149.00;100.00;66333.84;4962980;28;45294;-75
2022/12/05 00:33:36;;;;;;;;;41.25;37.25;;;;;-149.00;100.00;66333.84;4966503;28;45238;-75
2022/12/05 00:36:07;;;;;;;;;49.00;38.00;;;;;-149.00;100.00;66333.84;4965790;28;45337;-75
2022/12/05 00:38:33;;;;;;;;;36.75;32.50;;;;;-149.00;100.00;66333.84;4963886;28;47341;-75
2022/12/05 00:41:06;;;;;;;;;47.75;39.00;;;;;-149.00;100.00;66333.84;4962630;28;45284;-75
2022/12/05 00:43:32;;;;;;;;;44.00;35.00;;;;;-149.00;100.00;66333.84;4964394;28;45357;-75
2022/12/05 00:46:06;;;;;;;;;38.75;32.75;;;;;-149.00;100.00;66333.84;4965997;28;45325;-75
2022/12/05 00:48:32;;;;;;;;;41.25;34.25;;;;;-149.00;100.00;66333.84;4971991;28;45406;-76
2022/12/05 00:51:03;;;;;;;;;47.75;37.25;;;;;-149.00;100.00;66333.84;4969763;28;45543;-75
2022/12/05 00:53:29;;;;;;;;;47.25;41.25;;;;;-149.00;100.00;66333.84;4962886;28;45376;-75
2022/12/05 00:55:54;;;;;;;;;49.25;40.25;;;;;-149.00;100.00;66333.84;4962979;28;45318;-75
2022/12/05 00:58:19;;;;;;;;;39.25;34.75;;;;;-149.00;100.00;66333.84;4963661;28;48459;-76
2022/12/05 01:00:45;;;;;;;;;39.00;35.50;;;;;-149.00;100.00;66333.84;4963365;28;45367;-75
2022/12/05 01:03:10;;;;;;;;;44.00;39.25;;;;;-149.00;100.00;66333.84;4963810;28;45668;-75
2022/12/05 01:05:35;;;;;;;;;49.25;36.00;;;;;-149.00;100.00;66333.84;4963852;28;45430;-76
2022/12/05 01:08:01;;;;;;;;;39.00;36.75;;;;;-149.00;100.00;66333.84;4964573;28;46682;-76
2022/12/05 01:10:26;;;;;;;;;40.25;37.00;;;;;-149.00;100.00;66333.84;4963420;28;45483;-76
2022/12/05 01:12:51;;;;;;;;;52.75;42.50;;;;;-149.00;100.00;66333.84;4969756;28;45412;-75
2022/12/05 01:15:17;;;;;;;;;52.75;44.50;;;;;-149.00;100.00;66333.84;4966154;28;45320;-76
2022/12/05 01:17:42;;;;;;;;;42.75;37.75;;;;;-149.00;100.00;66333.84;4966872;28;45546;-75
2022/12/05 01:20:07;;;;;;;;;44.25;38.75;;;;;-149.00;100.00;66333.84;4962567;28;45355;-76
2022/12/05 01:22:33;;;;;;;;;38.50;34.50;;;;;-149.00;100.00;66333.84;4964364;28;45162;-75
2022/12/05 01:24:58;;;;;;;;;55.00;43.50;;;;;-149.00;100.00;66333.84;4965800;28;47277;-75
2022/12/05 01:27:24;;;;;;;;;53.50;44.50;;;;;-149.00;100.00;66333.84;4967644;28;45769;-76
2022/12/05 01:29:49;;;;;;;;;48.00;39.50;;;;;-149.00;100.00;66333.84;4965585;28;45351;-76
2022/12/05 01:32:14;;;;;;;;;60.25;47.75;;;;;-149.00;100.00;66333.84;4978309;28;45522;-76
2022/12/05 01:34:40;;;;;;;;;53.50;43.00;;;;;-149.00;100.00;66333.84;4956380;28;46443;-76
2022/12/05 01:37:05;;;;;;;;;41.75;37.50;;;;;-149.00;100.00;66333.84;4961659;28;46870;-76
2022/12/05 01:39:30;;;;;;;;;51.00;41.75;;;;;-149.00;100.00;66333.84;4961721;28;45293;-76
2022/12/05 01:41:56;;;;;;;;;40.00;36.50;;;;;-149.00;100.00;66333.84;4964005;28;45265;-77
2022/12/05 01:44:21;;;;;;;;;41.50;35.50;;;;;-149.00;100.00;66333.84;4964127;28;45424;-76
2022/12/05 01:46:49;;;;;;;;;47.25;40.50;;;;;-149.00;100.00;66333.84;4960017;28;47271;-76
2022/12/05 01:49:23;;;;;;;;;45.75;37.25;;;;;-149.00;100.00;66333.84;4963021;28;45358;-77
2022/12/05 01:52:01;;;;;;;;;40.75;34.00;;;;;-149.00;100.00;66333.84;4962750;28;45303;-76
2022/12/05 01:54:28;;;;;;;;;40.25;35.75;;;;;-149.00;100.00;66333.84;4961261;28;45290;-76
2022/12/05 01:57:00;;;;;;;;;39.50;34.00;;;;;-149.00;100.00;66333.84;4962648;28;45355;-77
2022/12/05 01:59:30;;;;;;;;;32.25;30.50;;;;;-149.00;100.00;66333.84;4961579;28;45389;-76
2022/12/05 02:01:56;;;;;;;;;41.00;34.25;;;;;-149.00;100.00;66333.84;4961299;28;45215;-76
2022/12/05 02:04:21;;;;;;;;;44.25;35.25;;;;;-149.00;100.00;66333.84;4961060;28;45874;-77
2022/12/05 02:06:47;;;;;;;;;38.75;35.75;;;;;-149.00;100.00;66333.84;4961823;28;45508;-76
2022/12/05 02:09:12;;;;;;;;;37.25;34.25;;;;;-149.00;100.00;66333.84;4959538;28;45996;-77
2022/12/05 02:11:51;;;;;;;;;43.00;38.00;;;;;-149.00;100.00;66333.84;4962577;28;45230;-76
2022/12/05 02:14:52;;;;;;;;;42.50;35.75;;;;;-149.00;100.00;66333.84;4961257;28;47182;-76
2022/12/05 02:17:48;;;;;;;;;36.75;34.00;;;;;-149.00;100.00;66333.84;4954849;28;45325;-77
2022/12/05 02:20:51;;;;;;;;;43.25;37.75;;;;;-149.00;100.00;66333.84;4964727;28;45312;-77
2022/12/05 02:23:59;;;;;;;;;39.00;35.25;;;;;-149.00;100.00;66333.84;4966481;28;45219;-76
2022/12/05 02:26:34;;;;;;;;;39.00;34.75;;;;;-149.00;100.00;66333.84;4960204;28;47337;-76
2022/12/05 02:29:08;;;;;;;;;38.75;34.00;;;;;-149.00;100.00;66333.84;4964517;28;48456;-76
2022/12/05 02:31:55;;;;;;;;;34.25;33.25;;;;;-149.00;100.00;66333.84;4965906;28;44985;-76
2022/12/05 02:34:39;;;;;;;;;48.50;38.75;;;;;-149.00;100.00;66333.84;4974927;28;45395;-77
2022/12/05 02:37:12;;;;;;;;;43.50;38.25;;;;;-149.00;100.00;66333.84;4947485;28;47524;-76
2022/12/05 02:39:52;;;;;;;;;47.25;39.00;;;;;-149.00;100.00;66333.84;4961592;28;46275;-77
2022/12/05 02:42:20;;;;;;;;;35.00;32.25;;;;;-149.00;100.00;66333.84;4962584;28;45353;-76
2022/12/05 02:44:55;;;;;;;;;43.75;38.25;;;;;-149.00;100.00;66333.84;4960679;28;45289;-76
2022/12/05 02:47:25;;;;;;;;;42.00;37.50;;;;;-149.00;100.00;66333.84;4960632;28;45472;-76
2022/12/05 02:49:51;;;;;;;;;41.50;36.75;;;;;-149.00;100.00;66333.84;4960386;28;46320;-76
2022/12/05 02:52:18;;;;;;;;;45.50;39.50;;;;;-149.00;100.00;66333.84;4960807;28;45339;-76
2022/12/05 02:54:47;;;;;;;;;39.50;36.25;;;;;-149.00;100.00;66333.84;4961624;28;45440;-76
2022/12/05 02:57:15;;;;;;;;;42.25;35.75;;;;;-149.00;100.00;66333.84;4961671;28;45250;-75
2022/12/05 02:59:40;;;;;;;;;44.75;39.00;;;;;-149.00;100.00;66333.84;4978141;28;47397;-76
2022/12/05 03:02:08;;;;;;;;;52.50;39.50;;;;;-149.00;100.00;66333.84;4960807;28;45385;-76
2022/12/05 03:04:34;;;;;;;;;50.00;39.75;;;;;-149.00;100.00;66333.84;4967433;28;45167;-76
2022/12/05 03:07:03;;;;;;;;;44.00;39.25;;;;;-149.00;100.00;66333.84;4965330;28;45237;-74
2022/12/05 03:09:38;;;;;;;;;47.75;38.25;;;;;-149.00;100.00;66333.84;4966197;28;47344;-75
2022/12/05 03:12:11;;;;;;;;;45.00;37.75;;;;;-149.00;100.00;66333.84;4966153;28;45304;-75
2022/12/05 03:14:43;;;;;;;;;44.00;38.50;;;;;-149.00;100.00;66333.84;4962606;28;45319;-75
2022/12/05 03:17:17;;;;;;;;;46.25;39.75;;;;;-149.00;100.00;66333.84;4963134;28;45406;-75
2022/12/05 03:19:53;;;;;;;;;42.00;37.50;;;;;-149.00;100.00;66333.84;4963382;28;45341;-75
2022/12/05 03:22:36;;;;;;;;;48.00;38.50;;;;;-149.00;100.00;66333.84;4962719;28;45281;-75
2022/12/05 03:25:02;;;;;;;;;39.50;35.75;;;;;-149.00;100.00;66333.84;4961841;28;45394;-74
2022/12/05 03:27:50;;;;;;;;;45.50;38.75;;;;;-149.00;100.00;66333.84;4962584;28;45456;-74
2022/12/05 03:30:18;;;;;;;;;42.75;37.75;;;;;-149.00;100.00;66333.84;4963647;28;46295;-74
2022/12/05 03:32:58;;;;;;;;;46.75;40.75;;;;;-149.00;100.00;66333.84;4979047;28;45252;-75
2022/12/05 03:35:34;;;;;;;;;45.00;35.50;;;;;-149.00;100.00;66333.84;4961277;28;45282;-74
2022/12/05 03:38:08;;;;;;;;;48.25;40.75;;;;;-149.00;100.00;66333.84;4961304;28;45986;-75
2022/12/05 03:40:46;;;;;;;;;46.00;40.00;;;;;-149.00;100.00;66333.84;4962412;28;48400;-74
2022/12/05 03:43:14;;;;;;;;;50.50;41.00;;;;;-149.00;100.00;66333.84;4963957;28;45325;-74
2022/12/05 03:45:59;;;;;;;;;41.75;38.50;;;;;-149.00;100.00;66333.84;4966222;28;45274;-74
2022/12/05 03:48:51;;;;;;;;;45.75;38.25;;;;;-149.00;100.00;66333.84;4976351;28;47302;-75
2022/12/05 03:51:21;;;;;;;;;46.75;36.25;;;;;-149.00;100.00;66333.84;4970695;28;47709;-74
2022/12/05 03:54:15;;;;;;;;;46.25;40.50;;;;;-149.00;100.00;66333.84;4972942;28;45937;-74
2022/12/05 03:56:47;;;;;;;;;49.25;42.00;;;;;-149.00;100.00;66333.84;4957425;28;45408;-75
2022/12/05 03:59:30;;;;;;;;;51.50;41.75;;;;;-149.00;100.00;66333.84;4963246;28;45553;-74
2022/12/05 04:01:59;;;;;;;;;45.75;40.25;;;;;-149.00;100.00;66333.84;4966323;28;45493;-75
2022/12/05 04:04:35;;;;;;;;;47.50;39.00;;;;;-149.00;100.00;66333.84;4969011;28;45372;-75
2022/12/05 04:07:04;;;;;;;;;51.25;42.25;;;;;-149.00;100.00;66333.84;4967108;28;45337;-75
2022/12/05 04:09:37;;;;;;;;;48.25;41.25;;;;;-149.00;100.00;66333.84;4976982;28;46885;-75
2022/12/05 04:12:10;;;;;;;;;49.00;41.25;;;;;-149.00;100.00;66333.84;4955195;28;48509;-75
2022/12/05 04:14:43;;;;;;;;;54.25;42.25;;;;;-149.00;100.00;66333.84;4965516;28;45822;-76
2022/12/05 04:17:20;;;;;;;;;52.25;43.75;;;;;-149.00;100.00;66333.84;4977189;28;45458;-75
2022/12/05 04:22:38;;;;;;;;;56.75;43.50;;;;;-149.00;100.00;66333.84;4965835;28;45285;-76
2022/12/05 04:28:06;;;;;;;;;50.25;38.25;;;;;-149.00;100.00;66333.84;4963951;28;45499;-76
2022/12/05 04:30:40;;;;;;;;;52.00;42.50;;;;;-149.00;100.00;66333.84;4964829;28;45202;-75
2022/12/05 04:33:09;;;;;;;;;51.75;42.50;;;;;-149.00;100.00;66333.84;4962657;28;45627;-75
2022/12/05 04:35:39;;;;;;;;;51.00;43.00;;;;;-149.00;100.00;66333.84;4961106;28;45407;-75
2022/12/05 04:38:10;;;;;;;;;58.50;43.50;;;;;-149.00;100.00;66333.84;4962626;28;45359;-76
2022/12/05 04:40:47;;;;;;;;;45.50;38.25;;;;;-149.00;100.00;66333.84;4963899;28;45436;-75
2022/12/05 04:43:15;;;;;;;;;53.00;40.00;;;;;-149.00;100.00;66333.84;4964208;28;46326;-75
2022/12/05 04:45:43;;;;;;;;;54.75;43.50;;;;;-149.00;100.00;66333.84;4963753;28;45258;-75
2022/12/05 04:48:16;;;;;;;;;50.50;42.75;;;;;-149.00;100.00;66333.84;4963245;28;45677;-76
2022/12/05 04:50:45;;;;;;;;;53.75;45.25;;;;;-149.00;100.00;66333.84;4963478;28;45505;-76
2022/12/05 04:53:12;;;;;;;;;51.75;41.50;;;;;-149.00;100.00;66333.84;4960572;28;47513;-75
2022/12/05 04:55:43;;;;;;;;;47.00;38.25;;;;;-149.00;100.00;66333.84;4962086;28;45759;-75
2022/12/05 04:58:21;;;;;;;;;55.75;44.25;;;;;-149.00;100.00;66333.84;4964142;28;45367;-75
2022/12/05 05:01:11;;;;;;;;;51.50;42.25;;;;;-149.00;100.00;66333.84;4961314;28;47230;-75
2022/12/05 05:03:46;;;;;;;;;54.75;43.00;;;;;-149.00;100.00;66333.84;4962514;28;45430;-75
2022/12/05 05:06:12;;;;;;;;;60.25;46.75;;;;;-149.00;100.00;66333.84;4974364;28;46139;-75
2022/12/05 05:08:54;;;;;;;;;53.25;44.00;;;;;-149.00;100.00;66333.84;4954526;28;45344;-75
2022/12/05 05:11:33;;;;;;;;;54.50;44.00;;;;;-149.00;100.00;66333.84;4962309;28;45468;-75
2022/12/05 05:13:59;;;;;;;;;54.75;46.00;;;;;-149.00;100.00;66333.84;4961934;28;46258;-75
2022/12/05 05:16:26;;;;;;;;;58.75;44.75;;;;;-149.00;100.00;66333.84;4948581;28;45403;-74
2022/12/05 05:18:51;;;;;;;;;53.50;41.00;;;;;-149.00;100.00;66333.84;4962221;28;45336;-75
2022/12/05 05:21:19;;;;;;;;;53.00;43.00;;;;;-149.00;100.00;66333.84;4960457;28;47181;-75
2022/12/05 05:23:45;;;;;;;;;53.25;43.25;;;;;-149.00;100.00;66333.84;4973718;28;47676;-75
2022/12/05 05:26:11;;;;;;;;;54.25;41.75;;;;;-149.00;100.00;66333.84;4958720;28;45316;-75
2022/12/05 05:28:37;;;;;;;;;57.75;44.00;;;;;-149.00;100.00;66333.84;4962425;28;45325;-75
2022/12/05 05:31:03;;;;;;;;;57.50;44.25;;;;;-149.00;100.00;66333.84;4961867;28;45528;-75
2022/12/05 05:33:28;;;;;;;;;56.00;44.75;;;;;-149.00;100.00;66333.84;4962523;28;45507;-76
2022/12/05 05:35:53;;;;;;;;;53.25;41.75;;;;;-149.00;100.00;66333.84;4962243;28;45377;-75
2022/12/05 05:38:19;;;;;;;;;59.00;46.75;;;;;-149.00;100.00;66333.84;4961936;28;45365;-76
2022/12/05 05:40:44;;;;;;;;;52.75;42.25;;;;;-149.00;100.00;66333.84;4962272;28;45520;-75
2022/12/05 05:43:09;;;;;;;;;53.00;42.25;;;;;-149.00;100.00;66333.84;4961363;28;47266;-75
2022/12/05 05:45:36;;;;;;;;;45.75;39.50;;;;;-149.00;100.00;66333.84;4962484;28;45369;-76
2022/12/05 05:48:01;;;;;;;;;51.25;40.50;;;;;-149.00;100.00;66333.84;4962343;28;45351;-75
2022/12/05 05:50:27;;;;;;;;;48.50;39.25;;;;;-149.00;100.00;66333.84;4960067;28;46523;-75
2022/12/05 05:52:53;;;;;;;;;53.25;42.25;;;;;-149.00;100.00;66333.84;4962650;28;48194;-76
2022/12/05 05:55:18;;;;;;;;;51.00;41.50;;;;;-149.00;100.00;66333.84;4964860;28;45407;-75
2022/12/05 05:57:43;;;;;;;;;49.25;42.50;;;;;-149.00;100.00;66333.84;4964224;28;45331;-75
2022/12/05 06:00:09;;;;;;;;;49.00;42.25;;;;;-149.00;100.00;66333.84;4964735;28;46233;-75
2022/12/05 06:02:35;;;;;;;;;44.25;38.25;;;;;-149.00;100.00;66333.84;4964460;28;45463;-75
2022/12/05 06:05:01;;;;;;;;;46.75;38.75;;;;;-149.00;100.00;66333.84;4975629;28;45982;-74
2022/12/05 06:07:27;;;;;;;;;38.75;35.00;;;;;-149.00;100.00;66333.84;4960631;28;45274;-74
2022/12/05 06:09:52;;;;;;;;;36.50;33.00;;;;;-149.00;100.00;66333.84;4961804;28;46055;-75
2022/12/05 06:12:17;;;;;;;;;46.00;37.25;;;;;-149.00;100.00;66333.84;4963297;28;46299;-76
2022/12/05 06:14:43;;;;;;;;;41.00;35.00;;;;;-149.00;100.00;66333.84;4963319;28;45285;-74
2022/12/05 06:17:08;;;;;;;;;36.50;35.00;;;;;-149.00;100.00;66333.84;4961168;28;45432;-75
2022/12/05 06:19:34;;;;;;;;;42.50;36.00;;;;;-149.00;100.00;66333.84;4961843;28;45907;-75
2022/12/05 06:21:59;;;;;;;;;43.50;37.25;;;;;-149.00;100.00;66333.84;4959421;28;47422;-74
2022/12/05 06:24:24;;;;;;;;;37.50;36.00;;;;;-149.00;100.00;66333.84;4960951;28;45297;-75
2022/12/05 06:26:50;;;;;;;;;35.75;34.00;;;;;-149.00;100.00;66333.84;4961328;28;45393;-75
2022/12/05 06:29:17;;;;;;;;;39.00;36.50;;;;;-149.00;100.00;66333.84;4961016;28;45527;-74
2022/12/05 06:31:43;;;;;;;;;39.50;34.75;;;;;-149.00;100.00;66333.84;4960136;28;56114;-75
2022/12/05 06:34:08;;;;;;;;;42.00;36.50;;;;;-149.00;100.00;66333.84;4962841;28;45266;-75
2022/12/05 06:36:34;;;;;;;;;40.50;36.50;;;;;-149.00;100.00;66333.84;4959711;28;45314;-75
2022/12/05 06:38:59;;;;;;;;;41.00;37.25;;;;;-149.00;100.00;66333.84;4972641;28;45885;-74
2022/12/05 06:41:26;;;;;;;;;46.00;36.50;;;;;-149.00;100.00;66333.84;4956285;28;45400;-75
2022/12/05 06:43:53;;;;;;;;;46.75;38.50;;;;;-149.00;100.00;66333.84;4972427;28;45326;-76
2022/12/05 06:46:19;;;;;;;;;38.50;35.75;;;;;-149.00;100.00;66333.84;4953836;28;45438;-75
2022/12/05 06:48:45;;;;;;;;;41.50;37.25;;;;;-149.00;100.00;66333.84;4960885;28;45381;-75
2022/12/05 06:51:13;;;;;;;;;44.50;37.00;;;;;-149.00;100.00;66333.84;4960902;28;46569;-76
2022/12/05 06:53:38;;;;;;;;;43.25;36.00;;;;;-149.00;100.00;66333.84;4960517;28;45213;-74
2022/12/05 06:56:15;;;;;;;;;41.25;37.50;;;;;-149.00;100.00;66333.84;4975581;28;45310;-75
2022/12/05 06:58:42;;;;;;;;;35.75;32.75;;;;;-149.00;100.00;66333.84;4959849;28;47123;-76
2022/12/05 07:04:05;;;;;;;;;44.50;37.75;;;;;-149.00;100.00;66333.84;4968170;28;45259;-75
2022/12/05 07:06:32;;;;;;;;;46.75;38.00;;;;;-149.00;100.00;66333.84;4957415;28;45491;-74
2022/12/05 07:08:57;;;;;;;;;37.25;30.25;;;;;-149.00;100.00;66333.84;4957579;28;45390;-75
2022/12/05 07:11:23;;;;;;;;;36.25;31.25;;;;;-149.00;100.00;66333.84;4950531;28;46421;-77
2022/12/05 07:13:49;;;;;;;;;52.50;40.25;;;;;-149.00;100.00;66333.84;4958864;28;45251;-75
2022/12/05 07:16:14;;;;;;;;;44.00;39.00;;;;;-149.00;100.00;66333.84;4960489;28;45235;-75
2022/12/05 07:18:39;;;;;;;;;34.50;31.50;;;;;-149.00;100.00;66333.84;4960620;28;45239;-75
2022/12/05 07:21:07;;;;;;;;;40.00;35.25;;;;;-149.00;100.00;66333.84;4958490;28;47343;-75
2022/12/05 07:23:33;;;;;;;;;36.50;34.50;;;;;-149.00;100.00;66333.84;4960045;28;45471;-77
2022/12/05 07:25:58;;;;;;;;;40.75;36.75;;;;;-149.00;100.00;66333.84;4969312;28;45502;-76
2022/12/05 07:28:27;;;;;;;;;44.25;36.50;;;;;-149.00;100.00;66333.84;4966533;28;45471;-77
2022/12/05 07:31:10;;;;;;;;;45.25;37.50;;;;;-149.00;100.00;66333.84;4970275;28;45241;-76
2022/12/05 07:33:36;;;;;;;;;45.25;37.25;;;;;-149.00;100.00;66333.84;4975377;28;45349;-77
2022/12/05 07:36:15;;;;;;;;;40.50;37.75;;;;;-149.00;100.00;66333.84;4967572;28;45288;-76
2022/12/05 07:38:41;;;;;;;;;36.25;33.75;;;;;-149.00;100.00;66333.84;4965450;28;47336;-77
2022/12/05 07:41:18;;;;;;;;;55.00;42.25;;;;;-149.00;100.00;66333.84;4972290;28;48173;-75
2022/12/05 07:43:45;;;;;;;;;46.00;37.50;;;;;-149.00;100.00;66333.84;4965811;28;45429;-76
2022/12/05 07:46:11;;;;;;;;;49.75;39.75;;;;;-149.00;100.00;66333.84;4960922;28;45404;-76
2022/12/05 07:48:36;;;;;;;;;57.50;44.75;;;;;-149.00;100.00;66333.84;4963135;28;45372;-75
2022/12/05 07:51:05;;;;;;;;;44.25;40.00;;;;;-149.00;100.00;66333.84;4963115;28;46262;-75
2022/12/05 07:53:33;;;;;;;;;76.50;58.00;;;;;-149.00;100.00;66333.84;4975085;28;45271;-75
2022/12/05 07:56:03;;;;;;;;;48.50;41.25;;;;;-149.00;100.00;66333.84;4959463;28;45301;-76
2022/12/05 07:58:32;;;;;;;;;54.25;41.25;;;;;-149.00;100.00;66333.84;4963069;28;45162;-75
2022/12/05 08:01:08;;;;;;;;;47.25;38.75;;;;;-149.00;100.00;66333.84;4961461;28;47570;-75
2022/12/05 08:03:36;;;;;;;;;49.75;41.50;;;;;-149.00;100.00;66333.84;4978575;28;45474;-75
2022/12/05 08:06:06;;;;;;;;;50.25;41.25;;;;;-149.00;100.00;66333.84;4970683;28;45389;-76
2022/12/05 08:08:34;;;;;;;;;47.25;41.25;;;;;-149.00;100.00;66333.84;4967125;28;46165;-75
2022/12/05 08:11:12;;;;;;;;;56.25;46.00;;;;;-149.00;100.00;66333.84;4963917;28;46013;-76
2022/12/05 08:13:39;;;;;;;;;53.50;40.75;;;;;-149.00;100.00;66333.84;4961720;28;45343;-75
2022/12/05 08:16:07;;;;;;;;;54.25;45.00;;;;;-149.00;100.00;66333.84;4963112;28;45234;-75
2022/12/05 08:18:32;;;;;;;;;55.75;44.75;;;;;-149.00;100.00;66333.84;4963265;28;45451;-76
2022/12/05 08:21:06;;;;;;;;;53.50;41.50;;;;;-149.00;100.00;66333.84;4964788;28;45484;-80
2022/12/05 08:23:38;;;;;;;;;51.50;42.75;;;;;-149.00;100.00;66333.84;4963374;28;45371;-78
2022/12/05 08:26:13;;;;;;;;;52.25;42.75;;;;;-149.00;100.00;66333.84;4962727;28;45183;-79
2022/12/05 08:28:40;;;;;;;;;53.00;42.25;;;;;-149.00;100.00;66333.84;4961188;28;46407;-79
2022/12/05 08:31:12;;;;;;;;;56.00;44.50;;;;;-149.00;100.00;66333.84;4961445;28;48566;-78
2022/12/05 08:33:37;;;;;;;;;52.50;43.25;;;;;-149.00;100.00;66333.84;4965503;28;45469;-78
2022/12/05 08:36:05;;;;;;;;;54.00;42.75;;;;;-149.00;100.00;66333.84;4961360;28;45344;-79
2022/12/05 08:38:34;;;;;;;;;56.25;43.50;;;;;-149.00;100.00;66333.84;4960682;28;47541;-77
2022/12/05 08:41:11;;;;;;;;;50.00;42.50;;;;;-149.00;100.00;66333.84;4960784;28;47419;-77
2022/12/05 08:43:36;;;;;;;;;49.00;43.00;;;;;-149.00;100.00;66333.84;4961661;28;45294;-77
2022/12/05 08:46:05;;;;;;;;;51.00;41.25;;;;;-149.00;100.00;66333.84;4961420;28;45377;-78
2022/12/05 08:48:34;;;;;;;;;54.75;44.00;;;;;-149.00;100.00;66333.84;4962421;28;45661;-77
2022/12/05 08:51:05;;;;;;;;;55.50;46.25;;;;;-149.00;100.00;66333.84;4962103;28;46855;-79
2022/12/05 08:53:35;;;;;;;;;56.75;45.25;;;;;-149.00;100.00;66333.84;4963765;28;45349;-78
2022/12/05 08:56:05;;;;;;;;;52.75;40.75;;;;;-149.00;100.00;66333.84;4962189;28;45483;-78
2022/12/05 08:58:30;;;;;;;;;52.75;43.50;;;;;-149.00;100.00;66333.84;4960707;28;46012;-78
2022/12/05 09:01:11;;;;;;;;;50.00;41.75;;;;;-149.00;100.00;66333.84;4960499;28;47292;-77
2022/12/05 09:03:38;;;;;;;;;59.50;47.75;;;;;-149.00;100.00;66333.84;4962121;28;45452;-78
2022/12/05 09:06:12;;;;;;;;;60.00;50.00;;;;;-149.00;100.00;66333.84;4960728;28;45326;-77
2022/12/05 09:08:38;;;;;;;;;55.75;41.75;;;;;-149.00;100.00;66333.84;4960474;28;47055;-77
2022/12/05 09:11:09;;;;;;;;;56.50;44.75;;;;;-149.00;100.00;66333.84;4961346;28;46286;-77
2022/12/05 09:13:35;;;;;;;;;55.75;45.75;;;;;-149.00;100.00;66333.84;4960323;28;45322;-78
2022/12/05 09:16:06;;;;;;;;;50.00;39.00;;;;;-149.00;100.00;66333.84;4962273;28;45353;-77
2022/12/05 09:18:31;;;;;;;;;45.25;38.25;;;;;-149.00;100.00;66333.84;4975259;28;46236;-77
2022/12/05 09:20:56;;;;;;;;;42.75;37.00;;;;;-149.00;100.00;66333.84;4960321;28;46934;-75
2022/12/05 09:23:22;;;;;;;;;43.75;39.25;;;;;-149.00;100.00;66333.84;4961382;28;47389;-75
2022/12/05 09:25:56;;;;;;;;;47.75;39.50;;;;;-149.00;100.00;66333.84;4961558;28;45350;-76
2022/12/05 09:28:22;;;;;;;;;52.00;43.25;;;;;-149.00;100.00;66333.84;4961714;28;45336;-75
2022/12/05 09:31:03;;;;;;;;;45.75;38.50;;;;;-149.00;100.00;66333.84;4973159;28;48428;-76
2022/12/05 09:33:30;;;;;;;;;51.00;42.00;;;;;-149.00;100.00;66333.84;4954846;28;45166;-74
2022/12/05 09:35:56;;;;;;;;;47.50;39.75;;;;;-149.00;100.00;66333.84;4962017;28;45377;-80
2022/12/05 09:38:23;;;;;;;;;48.25;42.00;;;;;-149.00;100.00;66333.84;4961046;28;45211;-80
2022/12/05 09:41:06;;;;;;;;;43.75;39.00;;;;;-149.00;100.00;66333.84;4959029;28;46301;-80
2022/12/05 09:43:46;;;;;;;;;53.00;44.75;;;;;-149.00;100.00;66333.84;4957663;28;45339;-80
2022/12/05 09:46:24;;;;;;;;;56.75;45.50;;;;;-149.00;100.00;66333.84;4960821;28;45495;-80
2022/12/05 09:48:50;;;;;;;;;59.25;47.00;;;;;-149.00;100.00;66333.84;4958405;28;46382;-80
2022/12/05 09:51:16;;;;;;;;;55.25;44.25;;;;;-149.00;100.00;66333.84;4960798;28;46181;-78
2022/12/05 09:53:43;;;;;;;;;52.50;41.50;;;;;-149.00;100.00;66333.84;4949544;28;45368;-80
2022/12/05 09:56:25;;;;;;;;;55.50;43.25;;;;;-149.00;100.00;66333.84;4960368;28;45334;-82
2022/12/05 09:58:56;;;;;;;;;52.25;41.25;;;;;-149.00;100.00;66333.84;4961173;28;45571;-81
2022/12/05 10:01:55;;;;;;;;;55.00;43.75;;;;;-149.00;100.00;66333.84;4959582;28;48227;-82
2022/12/05 10:04:26;;;;;;;;;56.25;45.25;;;;;-149.00;100.00;66333.84;4959637;28;45325;-82
2022/12/05 10:07:30;;;;;;;;;47.25;38.50;;;;;-149.00;100.00;66333.84;4961238;28;45308;-82
2022/12/05 10:10:25;;;;;;;;;60.50;47.50;;;;;-149.00;100.00;66333.84;4954630;28;45553;-82
2022/12/05 10:13:07;;;;;;;;;57.00;46.25;;;;;-149.00;100.00;66333.84;4960849;28;46440;-83
2022/12/05 10:15:55;;;;;;;;;60.50;48.75;;;;;-149.00;100.00;66333.84;4972657;28;45360;-81
2022/12/05 10:18:51;;;;;;;;;47.00;38.00;;;;;;;;5096507;27;45421;-82
2022/12/05 10:21:28;;;;;;;;;57.00;47.25;;;;;;;;5074693;28;45361;-81
2022/12/05 10:23:55;;;;;;;;;52.25;43.25;;;;;;;;5076502;28;45385;-80
2022/12/05 10:26:21;;;;;;;;;55.00;44.75;;;;;;;;5074606;28;45671;-80
2022/12/05 10:28:53;;;;;;;;;55.75;43.75;;;;;;;;5076252;28;46102;-81
2022/12/05 10:31:22;;;;;;;;;58.25;43.00;;;;;;;;5075896;28;45291;-81
2022/12/05 10:33:50;;;;;;;;;54.00;45.75;;;;;;;;5076392;27;45255;-81
2022/12/05 10:36:15;;;;;;;;;51.50;42.25;;;;;;;;5074331;28;46513;-79
2022/12/05 10:38:42;;;;;;;;;59.25;46.75;;;;;;;;5075914;28;45212;-79
2022/12/05 10:41:08;;;;;;;;;62.50;51.50;;;;;;;;5074651;28;45481;-79
2022/12/05 10:43:36;;;;;;;;;49.75;42.50;;;;;;;;5075938;28;45532;-79
2022/12/05 10:46:04;;;;;;;;;56.25;46.00;;;;;;;;5074413;28;46122;-80
2022/12/05 10:48:38;;;;;;;;;56.25;45.50;;;;;;;;5074275;28;46790;-80
2022/12/05 10:51:03;;;;;;;;;60.25;48.00;;;;;;;;5072380;27;45555;-79
2022/12/05 10:53:50;;;;;;;;;55.00;46.75;;;;;;;;5072195;28;45341;-79
2022/12/05 10:56:37;;;;;;;;;53.50;43.25;;;;;;;;5072202;27;45640;-79
2022/12/05 10:59:03;;;;;;;;;63.50;51.00;;;;;;;;5074600;28;46393;-79
2022/12/05 11:01:29;;;;;;;;;52.00;42.75;;;;;;;;5075760;27;45487;-79
2022/12/05 11:04:14;;;;;;;;;54.50;44.00;;;;;;;;5075796;28;45354;-78
2022/12/05 11:06:50;;;;;;;;;56.25;42.00;;;;;;;;5073057;28;47154;-79
2022/12/05 11:09:18;;;;;;;;;59.25;47.00;;;;;;;;5075163;28;46246;-79
2022/12/05 11:12:06;;;;;;;;;;;;;;;;;;;;;
2022/12/05 11:14:35;;;;;;;;;56.50;46.00;;;;;;;;5061245;28;68503;-80
2022/12/05 11:17:04;;;;;;;;;54.75;43.25;;;;;;;;5073752;28;46269;-80
2022/12/05 11:19:35;;;;;;;;;51.75;43.50;;;;;;;;5073884;28;47833;-82
2022/12/05 11:22:03;;;;;;;;;52.25;43.25;;;;;;;;5075176;27;45426;-80
2022/12/05 11:24:38;;;;;;;;;48.25;42.00;;;;;;;;5073725;28;45484;-82
2022/12/05 11:27:24;;;;;;;;;57.25;44.25;;;;;;;;5073797;27;45547;-83
2022/12/05 11:30:08;;;;;;;;;61.50;46.75;;;;;;;;5063307;27;45436;-82
2022/12/05 11:32:39;;;;;;;;;56.75;46.25;;;;;;;;5060532;28;45334;-80
2022/12/05 11:35:24;;;;;;;;;52.00;43.50;;;;;;;;5057431;28;45618;-80
2022/12/05 11:37:55;;;;;;;;;57.50;46.25;;;;;;;;5065556;28;47472;-83
2022/12/05 11:40:47;;;;;;;;;54.50;46.50;;;;;;;;5052224;28;47304;-80